sensor_id;sensor_type;location;lat;lon;timestamp;temperature;humidity
24262;DHT22;12385;51.412;5.540;2022-12-05T00:01:27;3.70;99.90
24262;DHT22;12385;51.412;5.540;2022-12-05T00:03:56;3.70;99.90
24262;DHT22;12385;51.412;5.540;2022-12-05T00:06:23;3.70;99.90
24262;DHT22;12385;51.412;5.540;2022-12-05T00:08:50;3.70;99.90
24262;DHT22;12385;51.412;5.540;2022-12-05T00:11:21;3.70;99.90
24262;DHT22;12385;51.412;5.540;2022-12-05T00:13:48;3.70;99.90
24262;DHT22;12385;51.412;5.540;2022-12-05T00:16:17;3.70;99.90
24262;DHT22;12385;51.412;5.540;2022-12-05T00:18:44;3.80;99.90
24262;DHT22;12385;51.412;5.540;2022-12-05T00:21:18;3.70;99.90
24262;DHT22;12385;51.412;5.540;2022-12-05T00:23:44;3.70;99.90
24262;DHT22;12385;51.412;5.540;2022-12-05T00:26:10;3.80;99.90
24262;DHT22;12385;51.412;5.540;2022-12-05T00:28:36;3.80;99.90
24262;DHT22;12385;51.412;5.540;2022-12-05T00:31:09;3.80;99.90
24262;DHT22;12385;51.412;5.540;2022-12-05T00:33:36;3.80;99.90
24262;DHT22;12385;51.412;5.540;2022-12-05T00:36:07;3.80;99.90
24262;DHT22;12385;51.412;5.540;2022-12-05T00:38:33;3.80;99.90
24262;DHT22;12385;51.412;5.540;2022-12-05T00:41:04;3.90;99.90
24262;DHT22;12385;51.412;5.540;2022-12-05T00:43:30;3.90;99.90
24262;DHT22;12385;51.412;5.540;2022-12-05T00:46:03;3.80;99.90
24262;DHT22;12385;51.412;5.540;2022-12-05T00:48:29;3.80;99.90
24262;DHT22;12385;51.412;5.540;2022-12-05T00:51:25;3.80;99.90
24262;DHT22;12385;51.412;5.540;2022-12-05T00:53:52;3.80;99.90
24262;DHT22;12385;51.412;5.540;2022-12-05T00:56:23;3.80;99.90
24262;DHT22;12385;51.412;5.540;2022-12-05T00:58:51;3.80;99.90
24262;DHT22;12385;51.412;5.540;2022-12-05T01:01:20;3.80;99.90
24262;DHT22;12385;51.412;5.540;2022-12-05T01:03:47;3.80;99.90
24262;DHT22;12385;51.412;5.540;2022-12-05T01:06:15;3.80;99.90
24262;DHT22;12385;51.412;5.540;2022-12-05T01:08:41;3.70;99.90
24262;DHT22;12385;51.412;5.540;2022-12-05T01:11:08;3.80;99.90
24262;DHT22;12385;51.412;5.540;2022-12-05T01:13:34;3.80;99.90
24262;DHT22;12385;51.412;5.540;2022-12-05T01:16:00;3.80;99.90
24262;DHT22;12385;51.412;5.540;2022-12-05T01:18:26;3.80;99.90
24262;DHT22;12385;51.412;5.540;2022-12-05T01:20:53;3.80;99.90
24262;DHT22;12385;51.412;5.540;2022-12-05T01:23:19;3.80;99.90
24262;DHT22;12385;51.412;5.540;2022-12-05T01:25:48;3.90;99.90
24262;DHT22;12385;51.412;5.540;2022-12-05T01:28:16;3.90;99.90
24262;DHT22;12385;51.412;5.540;2022-12-05T01:30:44;3.90;99.90
24262;DHT22;12385;51.412;5.540;2022-12-05T01:33:11;3.90;99.90
24262;DHT22;12385;51.412;5.540;2022-12-05T01:35:38;3.90;99.90
24262;DHT22;12385;51.412;5.540;2022-12-05T01:38:05;3.90;99.90
24262;DHT22;12385;51.412;5.540;2022-12-05T01:40:33;3.90;99.90
24262;DHT22;12385;51.412;5.540;2022-12-05T01:43:00;3.90;99.90
24262;DHT22;12385;51.412;5.540;2022-12-05T01:45:35;3.90;99.90
24262;DHT22;12385;51.412;5.540;2022-12-05T01:48:04;3.90;99.90
24262;DHT22;12385;51.412;5.540;2022-12-05T01:50:32;3.90;99.90
24262;DHT22;12385;51.412;5.540;2022-12-05T01:52:59;3.90;99.90
24262;DHT22;12385;51.412;5.540;2022-12-05T01:55:25;3.90;99.90
24262;DHT22;12385;51.412;5.540;2022-12-05T01:57:50;3.90;99.90
24262;DHT22;12385;51.412;5.540;2022-12-05T02:00:18;3.90;99.90
24262;DHT22;12385;51.412;5.540;2022-12-05T02:02:58;3.90;99.90
24262;DHT22;12385;51.412;5.540;2022-12-05T02:05:30;4.00;99.90
24262;DHT22;12385;51.412;5.540;2022-12-05T02:07:58;4.00;99.90
24262;DHT22;12385;51.412;5.540;2022-12-05T02:10:25;4.00;99.90
24262;DHT22;12385;51.412;5.540;2022-12-05T02:12:52;4.00;99.90
24262;DHT22;12385;51.412;5.540;2022-12-05T02:15:46;3.90;99.90
24262;DHT22;12385;51.412;5.540;2022-12-05T02:18:28;4.00;99.90
24262;DHT22;12385;51.412;5.540;2022-12-05T02:35:12;4.00;99.90
24262;DHT22;12385;51.412;5.540;2022-12-05T02:37:48;4.00;99.90
24262;DHT22;12385;51.412;5.540;2022-12-05T02:40:21;4.00;99.90
24262;DHT22;12385;51.412;5.540;2022-12-05T02:45:51;3.90;99.90
24262;DHT22;12385;51.412;5.540;2022-12-05T02:48:20;3.90;99.90
24262;DHT22;12385;51.412;5.540;2022-12-05T02:50:47;3.90;99.90
24262;DHT22;12385;51.412;5.540;2022-12-05T02:53:14;3.90;99.90
24262;DHT22;12385;51.412;5.540;2022-12-05T02:55:41;3.90;99.90
24262;DHT22;12385;51.412;5.540;2022-12-05T02:58:12;4.00;99.90
24262;DHT22;12385;51.412;5.540;2022-12-05T03:00:43;4.00;99.90
24262;DHT22;12385;51.412;5.540;2022-12-05T03:03:17;4.00;99.90
24262;DHT22;12385;51.412;5.540;2022-12-05T03:08:28;4.00;99.90
24262;DHT22;12385;51.412;5.540;2022-12-05T03:10:57;4.00;99.90
24262;DHT22;12385;51.412;5.540;2022-12-05T03:13:26;3.90;99.90
24262;DHT22;12385;51.412;5.540;2022-12-05T03:15:59;4.00;99.90
24262;DHT22;12385;51.412;5.540;2022-12-05T03:18:27;4.00;99.90
24262;DHT22;12385;51.412;5.540;2022-12-05T03:21:13;4.00;99.90
24262;DHT22;12385;51.412;5.540;2022-12-05T03:23:46;4.00;99.90
24262;DHT22;12385;51.412;5.540;2022-12-05T03:31:41;4.00;99.90
24262;DHT22;12385;51.412;5.540;2022-12-05T03:34:17;4.00;99.90
24262;DHT22;12385;51.412;5.540;2022-12-05T03:36:49;4.00;99.90
24262;DHT22;12385;51.412;5.540;2022-12-05T03:39:26;4.00;99.90
24262;DHT22;12385;51.412;5.540;2022-12-05T03:42:05;4.00;99.90
24262;DHT22;12385;51.412;5.540;2022-12-05T03:45:12;4.00;99.90
24262;DHT22;12385;51.412;5.540;2022-12-05T03:47:59;4.00;99.90
24262;DHT22;12385;51.412;5.540;2022-12-05T03:50:28;4.00;99.90
24262;DHT22;12385;51.412;5.540;2022-12-05T03:52:59;4.00;99.90
24262;DHT22;12385;51.412;5.540;2022-12-05T03:55:30;4.00;99.90
24262;DHT22;12385;51.412;5.540;2022-12-05T03:57:59;4.00;99.90
24262;DHT22;12385;51.412;5.540;2022-12-05T04:00:27;4.00;99.90
24262;DHT22;12385;51.412;5.540;2022-12-05T04:03:03;4.00;99.90
24262;DHT22;12385;51.412;5.540;2022-12-05T04:05:50;4.00;99.90
24262;DHT22;12385;51.412;5.540;2022-12-05T04:10:45;4.00;99.90
24262;DHT22;12385;51.412;5.540;2022-12-05T04:16:07;4.00;99.90
24262;DHT22;12385;51.412;5.540;2022-12-05T04:18:57;4.00;99.90
24262;DHT22;12385;51.412;5.540;2022-12-05T04:21:29;4.00;99.90
24262;DHT22;12385;51.412;5.540;2022-12-05T04:24:12;4.10;99.90
24262;DHT22;12385;51.412;5.540;2022-12-05T04:27:35;4.10;99.90
24262;DHT22;12385;51.412;5.540;2022-12-05T04:30:06;4.10;99.90
24262;DHT22;12385;51.412;5.540;2022-12-05T04:35:23;4.10;99.90
24262;DHT22;12385;51.412;5.540;2022-12-05T04:37:52;4.10;99.90
24262;DHT22;12385;51.412;5.540;2022-12-05T04:40:31;4.10;99.90
24262;DHT22;12385;51.412;5.540;2022-12-05T04:42:59;4.10;99.90
24262;DHT22;12385;51.412;5.540;2022-12-05T04:45:27;4.10;99.90
24262;DHT22;12385;51.412;5.540;2022-12-05T04:47:57;4.00;99.90
24262;DHT22;12385;51.412;5.540;2022-12-05T04:50:26;4.10;99.90
24262;DHT22;12385;51.412;5.540;2022-12-05T04:52:56;4.10;99.90
24262;DHT22;12385;51.412;5.540;2022-12-05T04:55:24;4.10;99.90
24262;DHT22;12385;51.412;5.540;2022-12-05T04:58:18;4.10;99.90
24262;DHT22;12385;51.412;5.540;2022-12-05T05:04:01;4.10;99.90
24262;DHT22;12385;51.412;5.540;2022-12-05T05:06:28;4.10;99.90
24262;DHT22;12385;51.412;5.540;2022-12-05T05:08:55;4.00;99.90
24262;DHT22;12385;51.412;5.540;2022-12-05T05:11:29;4.10;99.90
24262;DHT22;12385;51.412;5.540;2022-12-05T05:13:55;4.10;99.90
24262;DHT22;12385;51.412;5.540;2022-12-05T05:16:27;4.10;99.90
24262;DHT22;12385;51.412;5.540;2022-12-05T05:18:53;4.10;99.90
24262;DHT22;12385;51.412;5.540;2022-12-05T05:21:30;4.10;99.90
24262;DHT22;12385;51.412;5.540;2022-12-05T05:23:56;4.10;99.90
24262;DHT22;12385;51.412;5.540;2022-12-05T05:26:23;4.10;99.90
24262;DHT22;12385;51.412;5.540;2022-12-05T05:28:50;4.10;99.90
24262;DHT22;12385;51.412;5.540;2022-12-05T05:31:16;4.10;99.90
24262;DHT22;12385;51.412;5.540;2022-12-05T05:33:42;4.10;99.90
24262;DHT22;12385;51.412;5.540;2022-12-05T05:36:12;4.10;99.90
24262;DHT22;12385;51.412;5.540;2022-12-05T05:38:44;4.20;99.90
24262;DHT22;12385;51.412;5.540;2022-12-05T05:41:15;4.20;99.90
24262;DHT22;12385;51.412;5.540;2022-12-05T05:43:41;4.20;99.90
24262;DHT22;12385;51.412;5.540;2022-12-05T05:46:07;4.20;99.90
24262;DHT22;12385;51.412;5.540;2022-12-05T05:48:33;4.20;99.90
24262;DHT22;12385;51.412;5.540;2022-12-05T05:51:00;4.20;99.90
24262;DHT22;12385;51.412;5.540;2022-12-05T05:53:25;4.20;99.90
24262;DHT22;12385;51.412;5.540;2022-12-05T05:55:51;4.20;99.90
24262;DHT22;12385;51.412;5.540;2022-12-05T05:58:16;4.20;99.90
24262;DHT22;12385;51.412;5.540;2022-12-05T06:00:42;4.20;99.90
24262;DHT22;12385;51.412;5.540;2022-12-05T06:03:08;4.20;99.90
24262;DHT22;12385;51.412;5.540;2022-12-05T06:05:33;4.20;99.90
24262;DHT22;12385;51.412;5.540;2022-12-05T06:08:00;4.20;99.90
24262;DHT22;12385;51.412;5.540;2022-12-05T06:10:26;4.20;99.90
24262;DHT22;12385;51.412;5.540;2022-12-05T06:12:51;4.20;99.90
24262;DHT22;12385;51.412;5.540;2022-12-05T06:15:17;4.30;99.90
24262;DHT22;12385;51.412;5.540;2022-12-05T06:17:42;4.20;99.90
24262;DHT22;12385;51.412;5.540;2022-12-05T06:20:09;4.30;99.90
24262;DHT22;12385;51.412;5.540;2022-12-05T06:22:36;4.30;99.90
24262;DHT22;12385;51.412;5.540;2022-12-05T06:25:02;4.30;99.90
24262;DHT22;12385;51.412;5.540;2022-12-05T06:27:29;4.30;99.90
24262;DHT22;12385;51.412;5.540;2022-12-05T06:29:57;4.30;99.90
24262;DHT22;12385;51.412;5.540;2022-12-05T06:32:22;4.30;99.90
24262;DHT22;12385;51.412;5.540;2022-12-05T06:34:48;4.30;99.90
24262;DHT22;12385;51.412;5.540;2022-12-05T06:37:14;4.30;99.90
24262;DHT22;12385;51.412;5.540;2022-12-05T06:39:40;4.30;99.90
24262;DHT22;12385;51.412;5.540;2022-12-05T06:42:05;4.30;99.90
24262;DHT22;12385;51.412;5.540;2022-12-05T06:44:31;4.30;99.90
24262;DHT22;12385;51.412;5.540;2022-12-05T06:46:56;4.30;99.90
24262;DHT22;12385;51.412;5.540;2022-12-05T06:49:22;4.30;99.90
24262;DHT22;12385;51.412;5.540;2022-12-05T06:51:53;4.30;99.90
24262;DHT22;12385;51.412;5.540;2022-12-05T06:54:19;4.30;99.90
24262;DHT22;12385;51.412;5.540;2022-12-05T06:56:44;4.30;99.90
24262;DHT22;12385;51.412;5.540;2022-12-05T06:59:10;4.30;99.90
24262;DHT22;12385;51.412;5.540;2022-12-05T07:01:35;4.30;99.90
24262;DHT22;12385;51.412;5.540;2022-12-05T07:04:15;4.30;99.90
24262;DHT22;12385;51.412;5.540;2022-12-05T07:06:43;4.40;99.90
24262;DHT22;12385;51.412;5.540;2022-12-05T07:09:09;4.40;99.90
24262;DHT22;12385;51.412;5.540;2022-12-05T07:11:35;4.40;99.90
24262;DHT22;12385;51.412;5.540;2022-12-05T07:14:02;4.30;99.90
24262;DHT22;12385;51.412;5.540;2022-12-05T07:16:28;4.40;99.90
24262;DHT22;12385;51.412;5.540;2022-12-05T07:18:55;4.30;99.90
24262;DHT22;12385;51.412;5.540;2022-12-05T07:21:21;4.40;99.90
24262;DHT22;12385;51.412;5.540;2022-12-05T07:23:48;4.40;99.90
24262;DHT22;12385;51.412;5.540;2022-12-05T07:26:19;4.30;99.90
24262;DHT22;12385;51.412;5.540;2022-12-05T07:28:46;4.30;99.90
24262;DHT22;12385;51.412;5.540;2022-12-05T07:31:15;4.30;99.90
24262;DHT22;12385;51.412;5.540;2022-12-05T07:33:41;4.30;99.90
24262;DHT22;12385;51.412;5.540;2022-12-05T07:36:12;4.30;99.90
24262;DHT22;12385;51.412;5.540;2022-12-05T07:38:39;4.40;99.90
24262;DHT22;12385;51.412;5.540;2022-12-05T07:41:13;4.40;99.90
24262;DHT22;12385;51.412;5.540;2022-12-05T07:43:40;4.40;99.90
24262;DHT22;12385;51.412;5.540;2022-12-05T07:46:07;4.40;99.90
24262;DHT22;12385;51.412;5.540;2022-12-05T07:48:35;4.40;99.90
24262;DHT22;12385;51.412;5.540;2022-12-05T07:51:02;4.40;99.90
24262;DHT22;12385;51.412;5.540;2022-12-05T07:53:30;4.40;99.90
24262;DHT22;12385;51.412;5.540;2022-12-05T07:56:01;4.40;99.90
24262;DHT22;12385;51.412;5.540;2022-12-05T07:58:28;4.40;99.90
24262;DHT22;12385;51.412;5.540;2022-12-05T08:00:54;4.40;99.90
24262;DHT22;12385;51.412;5.540;2022-12-05T08:03:20;4.50;99.90
24262;DHT22;12385;51.412;5.540;2022-12-05T08:05:45;4.50;99.90
24262;DHT22;12385;51.412;5.540;2022-12-05T08:08:11;4.50;99.90
24262;DHT22;12385;51.412;5.540;2022-12-05T08:10:37;4.50;99.90
24262;DHT22;12385;51.412;5.540;2022-12-05T08:13:02;4.50;99.90
24262;DHT22;12385;51.412;5.540;2022-12-05T08:15:28;4.50;99.90
24262;DHT22;12385;51.412;5.540;2022-12-05T08:17:53;4.40;99.90
24262;DHT22;12385;51.412;5.540;2022-12-05T08:20:19;4.40;99.90
24262;DHT22;12385;51.412;5.540;2022-12-05T08:22:44;4.40;99.90
24262;DHT22;12385;51.412;5.540;2022-12-05T08:25:10;4.40;99.90
24262;DHT22;12385;51.412;5.540;2022-12-05T08:27:36;4.40;99.90
24262;DHT22;12385;51.412;5.540;2022-12-05T08:30:01;4.40;99.90
24262;DHT22;12385;51.412;5.540;2022-12-05T08:32:27;4.40;99.90
24262;DHT22;12385;51.412;5.540;2022-12-05T08:34:53;4.40;99.90
24262;DHT22;12385;51.412;5.540;2022-12-05T08:37:18;4.40;99.90
24262;DHT22;12385;51.412;5.540;2022-12-05T08:39:44;4.50;99.90
24262;DHT22;12385;51.412;5.540;2022-12-05T08:42:09;4.50;99.90
24262;DHT22;12385;51.412;5.540;2022-12-05T08:44:35;4.50;99.90
24262;DHT22;12385;51.412;5.540;2022-12-05T08:47:00;4.50;99.90
24262;DHT22;12385;51.412;5.540;2022-12-05T08:49:26;4.50;99.90
24262;DHT22;12385;51.412;5.540;2022-12-05T08:51:52;4.50;99.90
24262;DHT22;12385;51.412;5.540;2022-12-05T08:54:18;4.50;99.90
24262;DHT22;12385;51.412;5.540;2022-12-05T08:56:44;4.50;99.90
24262;DHT22;12385;51.412;5.540;2022-12-05T08:59:10;4.50;99.90
24262;DHT22;12385;51.412;5.540;2022-12-05T09:01:35;4.60;99.90
24262;DHT22;12385;51.412;5.540;2022-12-05T09:04:04;4.60;99.90
24262;DHT22;12385;51.412;5.540;2022-12-05T09:06:30;4.60;99.90
24262;DHT22;12385;51.412;5.540;2022-12-05T09:08:58;4.60;99.90
24262;DHT22;12385;51.412;5.540;2022-12-05T09:11:27;4.60;99.90
24262;DHT22;12385;51.412;5.540;2022-12-05T09:13:56;4.60;99.90
24262;DHT22;12385;51.412;5.540;2022-12-05T09:16:33;4.70;99.90
24262;DHT22;12385;51.412;5.540;2022-12-05T09:18:59;4.70;99.90
24262;DHT22;12385;51.412;5.540;2022-12-05T09:21:28;4.70;99.90
24262;DHT22;12385;51.412;5.540;2022-12-05T09:23:54;4.70;99.90
24262;DHT22;12385;51.412;5.540;2022-12-05T09:26:21;4.70;99.90
24262;DHT22;12385;51.412;5.540;2022-12-05T09:28:48;4.80;99.90
24262;DHT22;12385;51.412;5.540;2022-12-05T09:31:19;4.80;99.90
24262;DHT22;12385;51.412;5.540;2022-12-05T09:33:45;4.80;99.90
24262;DHT22;12385;51.412;5.540;2022-12-05T09:36:15;4.80;99.90
24262;DHT22;12385;51.412;5.540;2022-12-05T09:38:41;4.80;99.90
24262;DHT22;12385;51.412;5.540;2022-12-05T09:41:17;4.80;99.90
24262;DHT22;12385;51.412;5.540;2022-12-05T09:44:12;4.80;99.90
24262;DHT22;12385;51.412;5.540;2022-12-05T09:49:12;4.80;99.90
24262;DHT22;12385;51.412;5.540;2022-12-05T09:51:42;4.80;99.90
24262;DHT22;12385;51.412;5.540;2022-12-05T09:54:10;4.80;99.90
24262;DHT22;12385;51.412;5.540;2022-12-05T09:56:37;4.80;99.90
24262;DHT22;12385;51.412;5.540;2022-12-05T09:59:03;4.90;99.90
24262;DHT22;12385;51.412;5.540;2022-12-05T10:01:51;4.90;99.90
24262;DHT22;12385;51.412;5.540;2022-12-05T10:10:33;5.00;99.90
24262;DHT22;12385;51.412;5.540;2022-12-05T10:13:07;5.00;99.90
24262;DHT22;12385;51.412;5.540;2022-12-05T10:20:59;5.00;99.90
24262;DHT22;12385;51.412;5.540;2022-12-05T10:26:14;4.90;99.90
24262;DHT22;12385;51.412;5.540;2022-12-05T10:28:56;4.90;99.90
24262;DHT22;12385;51.412;5.540;2022-12-05T10:31:26;5.00;99.90
24262;DHT22;12385;51.412;5.540;2022-12-05T10:34:15;5.00;99.90
24262;DHT22;12385;51.412;5.540;2022-12-05T10:39:37;5.00;99.90
24262;DHT22;12385;51.412;5.540;2022-12-05T10:42:04;4.90;99.90
24262;DHT22;12385;51.412;5.540;2022-12-05T10:44:31;4.90;99.90
24262;DHT22;12385;51.412;5.540;2022-12-05T10:46:57;4.90;99.90
24262;DHT22;12385;51.412;5.540;2022-12-05T10:49:24;5.00;99.90
24262;DHT22;12385;51.412;5.540;2022-12-05T10:51:52;5.00;99.90
24262;DHT22;12385;51.412;5.540;2022-12-05T10:54:21;5.00;99.90
24262;DHT22;12385;51.412;5.540;2022-12-05T10:56:51;5.10;99.90
24262;DHT22;12385;51.412;5.540;2022-12-05T10:59:20;5.00;99.90
24262;DHT22;12385;51.412;5.540;2022-12-05T11:01:49;5.00;99.90
24262;DHT22;12385;51.412;5.540;2022-12-05T11:04:26;5.00;99.90
24262;DHT22;12385;51.412;5.540;2022-12-05T11:06:58;5.00;99.90
24262;DHT22;12385;51.412;5.540;2022-12-05T11:09:32;5.00;99.90
24262;DHT22;12385;51.412;5.540;2022-12-05T11:12:18;5.00;99.90
24262;DHT22;12385;51.412;5.540;2022-12-05T11:15:01;5.00;99.90
24262;DHT22;12385;51.412;5.540;2022-12-05T11:17:33;5.00;99.90
24262;DHT22;12385;51.412;5.540;2022-12-05T11:20:00;5.00;99.90
24262;DHT22;12385;51.412;5.540;2022-12-05T11:22:31;5.00;99.90
24262;DHT22;12385;51.412;5.540;2022-12-05T11:24:58;5.00;99.90
24262;DHT22;12385;51.412;5.540;2022-12-05T11:27:31;5.00;99.90
24262;DHT22;12385;51.412;5.540;2022-12-05T11:30:20;5.00;99.90
24262;DHT22;12385;51.412;5.540;2022-12-05T11:32:44;5.00;99.90
24262;DHT22;12385;51.412;5.540;2022-12-05T11:35:25;5.00;99.90
24262;DHT22;12385;51.412;5.540;2022-12-05T11:38:03;5.00;99.90
24262;DHT22;12385;51.412;5.540;2022-12-05T11:40:54;5.10;99.90
24262;DHT22;12385;51.412;5.540;2022-12-05T11:51:43;5.20;99.90
24262;DHT22;12385;51.412;5.540;2022-12-05T11:57:39;5.30;99.90
24262;DHT22;12385;51.412;5.540;2022-12-05T12:08:28;5.30;99.90
24262;DHT22;12385;51.412;5.540;2022-12-05T12:11:14;5.30;99.90
24262;DHT22;12385;51.412;5.540;2022-12-05T12:14:03;5.30;99.90
24262;DHT22;12385;51.412;5.540;2022-12-05T12:27:37;5.30;99.90
24262;DHT22;12385;51.412;5.540;2022-12-05T12:30:43;5.30;99.90
24262;DHT22;12385;51.412;5.540;2022-12-05T12:33:33;5.20;99.90
24262;DHT22;12385;51.412;5.540;2022-12-05T12:39:13;5.20;99.90
24262;DHT22;12385;51.412;5.540;2022-12-05T12:50:23;5.10;99.90
24262;DHT22;12385;51.412;5.540;2022-12-05T12:52:57;5.20;99.90
24262;DHT22;12385;51.412;5.540;2022-12-05T13:01:31;5.20;99.90
24262;DHT22;12385;51.412;5.540;2022-12-05T13:04:03;5.20;99.90
24262;DHT22;12385;51.412;5.540;2022-12-05T13:09:30;5.20;99.90
24262;DHT22;12385;51.412;5.540;2022-12-05T13:12:04;5.10;99.90
24262;DHT22;12385;51.412;5.540;2022-12-05T13:14:31;5.20;99.90
24262;DHT22;12385;51.412;5.540;2022-12-05T13:16:58;5.20;99.90
24262;DHT22;12385;51.412;5.540;2022-12-05T13:19:31;5.20;99.90
24262;DHT22;12385;51.412;5.540;2022-12-05T13:22:05;5.20;99.90
24262;DHT22;12385;51.412;5.540;2022-12-05T13:24:31;5.20;99.90
24262;DHT22;12385;51.412;5.540;2022-12-05T13:27:04;5.20;99.90
24262;DHT22;12385;51.412;5.540;2022-12-05T13:29:40;5.20;99.90
24262;DHT22;12385;51.412;5.540;2022-12-05T13:32:26;5.20;99.90
24262;DHT22;12385;51.412;5.540;2022-12-05T13:35:39;5.20;99.90
24262;DHT22;12385;51.412;5.540;2022-12-05T13:37:45;5.20;99.90
24262;DHT22;12385;51.412;5.540;2022-12-05T13:40:32;5.20;99.90
24262;DHT22;12385;51.412;5.540;2022-12-05T13:43:27;5.20;99.90
24262;DHT22;12385;51.412;5.540;2022-12-05T13:48:25;5.20;99.90
24262;DHT22;12385;51.412;5.540;2022-12-05T13:51:01;5.30;99.90
24262;DHT22;12385;51.412;5.540;2022-12-05T13:53:33;5.30;99.90
24262;DHT22;12385;51.412;5.540;2022-12-05T13:58:49;5.30;99.90
24262;DHT22;12385;51.412;5.540;2022-12-05T14:17:29;5.30;99.90
24262;DHT22;12385;51.412;5.540;2022-12-05T14:26:14;5.30;99.90
24262;DHT22;12385;51.412;5.540;2022-12-05T14:34:16;5.20;99.90
24262;DHT22;12385;51.412;5.540;2022-12-05T14:39:39;5.30;99.90
24262;DHT22;12385;51.412;5.540;2022-12-05T14:44:56;5.30;99.90
24262;DHT22;12385;51.412;5.540;2022-12-05T14:47:25;5.30;99.90
24262;DHT22;12385;51.412;5.540;2022-12-05T14:55:44;5.30;99.90
24262;DHT22;12385;51.412;5.540;2022-12-05T15:01:05;5.30;99.90
24262;DHT22;12385;51.412;5.540;2022-12-05T15:03:34;5.30;99.90
24262;DHT22;12385;51.412;5.540;2022-12-05T15:06:02;5.30;99.90
24262;DHT22;12385;51.412;5.540;2022-12-05T15:08:33;5.20;99.90
24262;DHT22;12385;51.412;5.540;2022-12-05T15:11:03;5.20;99.90
24262;DHT22;12385;51.412;5.540;2022-12-05T15:13:29;5.30;99.90
24262;DHT22;12385;51.412;5.540;2022-12-05T15:16:11;5.30;99.90
24262;DHT22;12385;51.412;5.540;2022-12-05T15:18:45;5.30;99.90
24262;DHT22;12385;51.412;5.540;2022-12-05T15:21:31;5.30;99.90
24262;DHT22;12385;51.412;5.540;2022-12-05T15:24:20;5.30;99.90
24262;DHT22;12385;51.412;5.540;2022-12-05T15:36:54;5.30;99.90
24262;DHT22;12385;51.412;5.540;2022-12-05T15:39:24;5.30;99.90
24262;DHT22;12385;51.412;5.540;2022-12-05T15:41:54;5.30;99.90
24262;DHT22;12385;51.412;5.540;2022-12-05T15:44:21;5.30;99.90
24262;DHT22;12385;51.412;5.540;2022-12-05T15:46:54;5.20;99.90
24262;DHT22;12385;51.412;5.540;2022-12-05T15:49:26;5.20;99.90
24262;DHT22;12385;51.412;5.540;2022-12-05T15:54:45;5.20;99.90
24262;DHT22;12385;51.412;5.540;2022-12-05T15:57:36;5.30;99.90
24262;DHT22;12385;51.412;5.540;2022-12-05T16:00:06;5.30;99.90
24262;DHT22;12385;51.412;5.540;2022-12-05T16:05:22;5.20;99.90
24262;DHT22;12385;51.412;5.540;2022-12-05T16:07:49;5.20;99.90
24262;DHT22;12385;51.412;5.540;2022-12-05T16:10:16;5.20;99.90
24262;DHT22;12385;51.412;5.540;2022-12-05T16:12:46;5.30;99.90
24262;DHT22;12385;51.412;5.540;2022-12-05T16:15:22;5.30;99.90
24262;DHT22;12385;51.412;5.540;2022-12-05T16:17:56;5.30;99.90
24262;DHT22;12385;51.412;5.540;2022-12-05T16:23:03;5.30;99.90
24262;DHT22;12385;51.412;5.540;2022-12-05T16:25:32;5.30;99.90
24262;DHT22;12385;51.412;5.540;2022-12-05T16:28:19;5.30;99.90
24262;DHT22;12385;51.412;5.540;2022-12-05T16:31:02;5.30;99.90
24262;DHT22;12385;51.412;5.540;2022-12-05T16:33:29;5.30;99.90
24262;DHT22;12385;51.412;5.540;2022-12-05T16:35:55;5.30;99.90
24262;DHT22;12385;51.412;5.540;2022-12-05T16:38:27;5.20;99.90
24262;DHT22;12385;51.412;5.540;2022-12-05T16:40:58;5.30;99.90
24262;DHT22;12385;51.412;5.540;2022-12-05T16:45:52;5.20;99.90
24262;DHT22;12385;51.412;5.540;2022-12-05T16:48:26;5.20;99.90
24262;DHT22;12385;51.412;5.540;2022-12-05T16:51:22;5.20;99.90
24262;DHT22;12385;51.412;5.540;2022-12-05T16:53:54;5.20;99.90
24262;DHT22;12385;51.412;5.540;2022-12-05T16:56:30;5.20;99.90
24262;DHT22;12385;51.412;5.540;2022-12-05T16:59:03;5.20;99.90
24262;DHT22;12385;51.412;5.540;2022-12-05T17:01:28;5.20;99.90
24262;DHT22;12385;51.412;5.540;2022-12-05T17:03:55;5.20;99.90
24262;DHT22;12385;51.412;5.540;2022-12-05T17:06:22;5.20;99.90
24262;DHT22;12385;51.412;5.540;2022-12-05T17:08:49;5.20;99.90
24262;DHT22;12385;51.412;5.540;2022-12-05T17:11:19;5.20;99.90
24262;DHT22;12385;51.412;5.540;2022-12-05T17:13:46;5.20;99.90
24262;DHT22;12385;51.412;5.540;2022-12-05T17:16:13;5.20;99.90
24262;DHT22;12385;51.412;5.540;2022-12-05T17:18:39;5.20;99.90
24262;DHT22;12385;51.412;5.540;2022-12-05T17:21:05;5.20;99.90
24262;DHT22;12385;51.412;5.540;2022-12-05T17:23:31;5.20;99.90
24262;DHT22;12385;51.412;5.540;2022-12-05T17:25:58;5.20;99.90
24262;DHT22;12385;51.412;5.540;2022-12-05T17:28:24;5.20;99.90
24262;DHT22;12385;51.412;5.540;2022-12-05T17:30:49;5.20;99.90
24262;DHT22;12385;51.412;5.540;2022-12-05T17:33:17;5.20;99.90
24262;DHT22;12385;51.412;5.540;2022-12-05T17:35:43;5.20;99.90
24262;DHT22;12385;51.412;5.540;2022-12-05T17:38:09;5.20;99.90
24262;DHT22;12385;51.412;5.540;2022-12-05T17:40:36;5.20;99.90
24262;DHT22;12385;51.412;5.540;2022-12-05T17:43:02;5.20;99.90
24262;DHT22;12385;51.412;5.540;2022-12-05T17:45:28;5.20;99.90
24262;DHT22;12385;51.412;5.540;2022-12-05T17:47:54;5.20;99.90
24262;DHT22;12385;51.412;5.540;2022-12-05T17:50:21;5.20;99.90
24262;DHT22;12385;51.412;5.540;2022-12-05T17:52:50;5.20;99.90
24262;DHT22;12385;51.412;5.540;2022-12-05T17:55:25;5.20;99.90
24262;DHT22;12385;51.412;5.540;2022-12-05T17:57:51;5.20;99.90
24262;DHT22;12385;51.412;5.540;2022-12-05T18:00:18;5.20;99.90
24262;DHT22;12385;51.412;5.540;2022-12-05T18:02:44;5.30;99.90
24262;DHT22;12385;51.412;5.540;2022-12-05T18:05:12;5.30;99.90
24262;DHT22;12385;51.412;5.540;2022-12-05T18:07:39;5.30;99.90
24262;DHT22;12385;51.412;5.540;2022-12-05T18:10:09;5.30;99.90
24262;DHT22;12385;51.412;5.540;2022-12-05T18:12:34;5.30;99.90
24262;DHT22;12385;51.412;5.540;2022-12-05T18:15:00;5.30;99.90
24262;DHT22;12385;51.412;5.540;2022-12-05T18:17:26;5.30;99.90
24262;DHT22;12385;51.412;5.540;2022-12-05T18:19:53;5.30;99.90
24262;DHT22;12385;51.412;5.540;2022-12-05T18:22:26;5.30;99.90
24262;DHT22;12385;51.412;5.540;2022-12-05T18:24:52;5.30;99.90
24262;DHT22;12385;51.412;5.540;2022-12-05T18:27:19;5.30;99.90
24262;DHT22;12385;51.412;5.540;2022-12-05T18:29:48;5.30;99.90
24262;DHT22;12385;51.412;5.540;2022-12-05T18:32:14;5.40;99.90
24262;DHT22;12385;51.412;5.540;2022-12-05T18:34:40;5.40;99.90
24262;DHT22;12385;51.412;5.540;2022-12-05T18:37:06;5.40;99.90
24262;DHT22;12385;51.412;5.540;2022-12-05T18:39:32;5.40;99.90
24262;DHT22;12385;51.412;5.540;2022-12-05T18:41:57;5.40;99.90
24262;DHT22;12385;51.412;5.540;2022-12-05T18:44:23;5.40;99.90
24262;DHT22;12385;51.412;5.540;2022-12-05T18:46:48;5.40;99.90
24262;DHT22;12385;51.412;5.540;2022-12-05T18:49:14;5.40;99.90
24262;DHT22;12385;51.412;5.540;2022-12-05T18:51:40;5.40;99.90
24262;DHT22;12385;51.412;5.540;2022-12-05T18:54:06;5.40;99.90
24262;DHT22;12385;51.412;5.540;2022-12-05T18:56:33;5.40;99.90
24262;DHT22;12385;51.412;5.540;2022-12-05T19:01:31;5.40;99.90
24262;DHT22;12385;51.412;5.540;2022-12-05T19:03:59;5.40;99.90